OIAA

Abadan Airport

Abadan, Iran
TAF OIAA 231700Z 2318/2424 30004MPS CAVOK TEMPO 2318/2324 30008MPS
Issued Valid From Valid To
Apr-23 @ 17:00 UTC
(6 hours ago)
Apr-23 @ 18:00 UTC
(5 hours ago)
Apr-25 @ 00:00 UTC
(-1 days ago)
Apr-23 @ 18:00 to Apr-25 @ 00:00
TAF OIAA 231700Z 2318/2424 30004MPS CAVOK
Wind Visibility Clouds Conditions
300° at 8 knots 10,000+ meters
  • No significant clouds
Temporary Apr-23 @ 18:00 to Apr-24 @ 00:00
TEMPO 2318/2324 30008MPS
Wind
300° at 16 knots
TAF OIAA 231700Z 2318/2424 30004MPS CAVOK TEMPO 2318/2324 30008MPS
Issued Apr-23 @ 17:00 UTC
(6 hours ago)
Valid From Apr-23 @ 18:00 UTC
(5 hours ago)
Valid To Apr-25 @ 00:00 UTC
(-1 days ago)
Apr-23 @ 18:00 - Apr-25 @ 00:00
Wind Visibility
300° at 8 knots 10,000+ meters
Clouds
  • No significant clouds
Conditions
Temporary Apr-23 @ 18:00 - Apr-24 @ 00:00
Wind
300° at 16 knots